Terminal Aerodrome Forecast
Issued by NWS

Current Version | Previous Version | Text Only | Print | Product List | Glossary On
Versions: 1 2 3 4 5 6 7 8 9 10 11 12 13 14 15 16 17 18 19 20 21 22 23 24
667
FTUS46 KSGX 230520
TAFSAN
TAF
KSAN 230520Z 2306/2412 VRB04KT P6SM SKC
     FM232100 30009KT P6SM SKC
     FM240100 VRB04KT P6SM SKC=

USA.gov is the U.S. government's official web portal to all federal, state and local government web resources and services.